Insula Oya 2 — FUKI — position and weather

sailwx.info

Track history (hours):
 
Tides and Currents Weather Stations Pressure Air Temp Water Temp Dewpoint Dewpoint Depression Visibility Wind Speed Wind Dir Waves Ship Positions

Insula Oya 2

Last reported at 2016-Jun-30 00:33 UTC. Time now 2016-Jun-30 01:30 UTC.
Position N 46°54' W 002°08'.

Length 50 m; draft 2.5 m.

Type: Passenger vessel. MMSI: 227004900.

Date/timePositionNaut miles runAvg speedWind from/ knotsBaromVisibWave heightAir tempDewpointWater temp
2016-Jun-30 00:33N 46°54' W 002°08'0 0.0
2016-Jun-29 23:33N 46°54' W 002°08'0 0.0
2016-Jun-29 22:33N 46°54' W 002°08'0 0.0
2016-Jun-29 21:33N 46°54' W 002°08'0 0.0
2016-Jun-29 20:33N 46°54' W 002°08'0 0.0
2016-Jun-29 19:33N 46°54' W 002°08'0 0.0
2016-Jun-29 18:33N 46°54' W 002°08'0 0.0
2016-Jun-29 17:33N 46°54' W 002°08'0 0.0
2016-Jun-29 16:33N 46°54' W 002°08'0 0.0
2016-Jun-29 15:33N 46°54' W 002°08'0 0.0
2016-Jun-29 14:33N 46°54' W 002°08'0 0.0
2016-Jun-29 13:33N 46°54' W 002°08'5 1.2
2016-Jun-29 09:22N 46°50' W 002°14'5 6.3
2016-Jun-29 08:34N 46°54' W 002°08'0 0.0
2016-Jun-29 07:33N 46°54' W 002°08'0 0.0
2016-Jun-29 06:33N 46°54' W 002°08'0 0.0
2016-Jun-29 05:33N 46°54' W 002°08'0 0.0
2016-Jun-29 04:33N 46°54' W 002°08'0 0.0
2016-Jun-29 03:33N 46°54' W 002°08'0 0.0
2016-Jun-29 02:33N 46°54' W 002°08'0 0.0
2016-Jun-29 01:33N 46°54' W 002°08'0 0.0
2016-Jun-29 00:33N 46°54' W 002°08'0 0.0
2016-Jun-28 23:33N 46°54' W 002°08'0 0.0
2016-Jun-28 22:33N 46°54' W 002°08'0 0.0
2016-Jun-28 21:33N 46°54' W 002°08'0 0.0
2016-Jun-28 20:33N 46°54' W 002°08'0 0.0
2016-Jun-28 19:33N 46°54' W 002°08'0 0.0
2016-Jun-28 18:33N 46°54' W 002°08'0 0.0
2016-Jun-28 17:33N 46°54' W 002°08'0 0.0
2016-Jun-28 16:33N 46°54' W 002°08'0 0.0
2016-Jun-28 15:33N 46°54' W 002°08'0 0.0
2016-Jun-28 14:33N 46°54' W 002°08'0 0.0
2016-Jun-28 13:33N 46°54' W 002°08'0 0.0
2016-Jun-28 12:33N 46°54' W 002°08'4 4.3
2016-Jun-28 11:32N 46°51' W 002°14'3 0.8
2016-Jun-28 07:33N 46°54' W 002°11'2 1.6
2016-Jun-28 06:33N 46°54' W 002°08'0 0.0
2016-Jun-28 04:33N 46°54' W 002°08'0 0.0
2016-Jun-28 03:33N 46°54' W 002°08'0 0.0
2016-Jun-28 02:33N 46°54' W 002°08'0 0.0
2016-Jun-28 01:33N 46°54' W 002°08'0 0.0
2016-Jun-28 00:33N 46°54' W 002°08'0 0.0
2016-Jun-27 23:33N 46°54' W 002°08'0 0.0
2016-Jun-27 22:33N 46°54' W 002°08'0 0.0
2016-Jun-27 21:33N 46°54' W 002°08'0 0.0
2016-Jun-27 20:33N 46°54' W 002°08'0 0.0
2016-Jun-27 19:33N 46°54' W 002°08'0 0.0
2016-Jun-27 18:33N 46°54' W 002°08'0 0.0
2016-Jun-27 17:33N 46°54' W 002°08'0 0.0
2016-Jun-27 16:33N 46°54' W 002°08'0 0.0
2016-Jun-27 15:33N 46°54' W 002°08'0 0.0
2016-Jun-27 14:33N 46°54' W 002°08'0 0.0
2016-Jun-27 13:33N 46°54' W 002°08'0 0.0
2016-Jun-27 12:33N 46°54' W 002°08'0 0.0
2016-Jun-27 11:33N 46°54' W 002°08'1 1.5
2016-Jun-27 10:33N 46°54' W 002°11'  
2016-Jun-25 05:32N 46°53' W 002°12'2 2.4
2016-Jun-25 04:33N 46°54' W 002°08'0 0.0
2016-Jun-25 03:33N 46°54' W 002°08'0 0.0
2016-Jun-25 02:33N 46°54' W 002°08'0 0.0
2016-Jun-25 01:33N 46°54' W 002°08'0 0.0
2016-Jun-25 00:33N 46°54' W 002°08'0 0.0
2016-Jun-24 23:33N 46°54' W 002°08'0 0.0
2016-Jun-24 22:33N 46°54' W 002°08'0 0.0
2016-Jun-24 21:33N 46°54' W 002°08'0 0.0
2016-Jun-24 20:33N 46°54' W 002°08'0 0.0
2016-Jun-24 19:33N 46°54' W 002°08'0 0.0
2016-Jun-24 18:33N 46°54' W 002°08'0 0.0
2016-Jun-24 17:33N 46°54' W 002°08'4 3.7
2016-Jun-24 16:33N 46°52' W 002°13'8 1.0
2016-Jun-24 08:12N 46°45' W 002°20'914.5
2016-Jun-24 07:33N 46°53' W 002°12'8 2.7
2016-Jun-24 04:29N 46°46' W 002°19'3 1.2
2016-Jun-24 02:21N 46°44' W 002°21'0 0.0
2016-Jun-24 01:15N 46°44' W 002°21'0 0.0
2016-Jun-24 00:28N 46°44' W 002°21'4 0.6
2016-Jun-23 18:33N 46°46' W 002°18'10 9.5
2016-Jun-23 17:33N 46°54' W 002°08'0 0.0
2016-Jun-23 16:33N 46°54' W 002°08'5 4.6
2016-Jun-23 15:33N 46°51' W 002°14'9 3.9
2016-Jun-23 13:20N 46°44' W 002°21'11 1.4
2016-Jun-23 05:33N 46°52' W 002°12'3 2.9
2016-Jun-23 04:33N 46°54' W 002°08'0 0.0
2016-Jun-23 03:33N 46°54' W 002°08'0 0.0
2016-Jun-23 02:33N 46°54' W 002°08'0 0.0
2016-Jun-23 01:33N 46°54' W 002°08'0 0.0
2016-Jun-23 00:33N 46°54' W 002°08'0 0.0
2016-Jun-22 23:33N 46°54' W 002°08'0 0.0
2016-Jun-22 22:33N 46°54' W 002°08'0 0.0
2016-Jun-22 21:33N 46°54' W 002°08'0 0.0
2016-Jun-22 20:33N 46°54' W 002°08'0 0.0
2016-Jun-22 19:33N 46°54' W 002°08'0 0.0
2016-Jun-22 18:33N 46°54' W 002°08'0 0.0
2016-Jun-22 17:33N 46°54' W 002°08'0 0.0
2016-Jun-22 16:33N 46°54' W 002°08'0 0.0
2016-Jun-22 15:33N 46°54' W 002°08'1010.1
2016-Jun-22 14:33N 46°46' W 002°18'  
Track history (hours):
 
Tides and Currents Weather Stations Pressure Air Temp Water Temp Dewpoint Dewpoint Depression Visibility Wind Speed Wind Dir Waves Ship Positions

Insula Oya 2

Last reported at 2016-Jun-30 00:33 UTC. Time now 2016-Jun-30 01:30 UTC.
Position N 46°54' W 002°08'.

Length 50 m; draft 2.5 m.

Type: Passenger vessel. MMSI: 227004900.

Date/timePositionNaut miles runAvg speedWind from/ knotsBaromVisibWave heightAir tempDewpointWater temp
2016-Jun-30 00:33N 46°54' W 002°08'0 0.0
2016-Jun-29 23:33N 46°54' W 002°08'0 0.0
2016-Jun-29 22:33N 46°54' W 002°08'0 0.0
2016-Jun-29 21:33N 46°54' W 002°08'0 0.0
2016-Jun-29 20:33N 46°54' W 002°08'0 0.0
2016-Jun-29 19:33N 46°54' W 002°08'0 0.0
2016-Jun-29 18:33N 46°54' W 002°08'0 0.0
2016-Jun-29 17:33N 46°54' W 002°08'0 0.0
2016-Jun-29 16:33N 46°54' W 002°08'0 0.0
2016-Jun-29 15:33N 46°54' W 002°08'0 0.0
2016-Jun-29 14:33N 46°54' W 002°08'0 0.0
2016-Jun-29 13:33N 46°54' W 002°08'5 1.2
2016-Jun-29 09:22N 46°50' W 002°14'5 6.3
2016-Jun-29 08:34N 46°54' W 002°08'0 0.0
2016-Jun-29 07:33N 46°54' W 002°08'0 0.0
2016-Jun-29 06:33N 46°54' W 002°08'0 0.0
2016-Jun-29 05:33N 46°54' W 002°08'0 0.0
2016-Jun-29 04:33N 46°54' W 002°08'0 0.0
2016-Jun-29 03:33N 46°54' W 002°08'0 0.0
2016-Jun-29 02:33N 46°54' W 002°08'0 0.0
2016-Jun-29 01:33N 46°54' W 002°08'0 0.0
2016-Jun-29 00:33N 46°54' W 002°08'0 0.0
2016-Jun-28 23:33N 46°54' W 002°08'0 0.0
2016-Jun-28 22:33N 46°54' W 002°08'0 0.0
2016-Jun-28 21:33N 46°54' W 002°08'0 0.0
2016-Jun-28 20:33N 46°54' W 002°08'0 0.0
2016-Jun-28 19:33N 46°54' W 002°08'0 0.0
2016-Jun-28 18:33N 46°54' W 002°08'0 0.0
2016-Jun-28 17:33N 46°54' W 002°08'0 0.0
2016-Jun-28 16:33N 46°54' W 002°08'0 0.0
2016-Jun-28 15:33N 46°54' W 002°08'0 0.0
2016-Jun-28 14:33N 46°54' W 002°08'0 0.0
2016-Jun-28 13:33N 46°54' W 002°08'0 0.0
2016-Jun-28 12:33N 46°54' W 002°08'4 4.3
2016-Jun-28 11:32N 46°51' W 002°14'3 0.8
2016-Jun-28 07:33N 46°54' W 002°11'2 1.6
2016-Jun-28 06:33N 46°54' W 002°08'0 0.0
2016-Jun-28 04:33N 46°54' W 002°08'0 0.0
2016-Jun-28 03:33N 46°54' W 002°08'0 0.0
2016-Jun-28 02:33N 46°54' W 002°08'0 0.0
2016-Jun-28 01:33N 46°54' W 002°08'0 0.0
2016-Jun-28 00:33N 46°54' W 002°08'0 0.0
2016-Jun-27 23:33N 46°54' W 002°08'0 0.0
2016-Jun-27 22:33N 46°54' W 002°08'0 0.0
2016-Jun-27 21:33N 46°54' W 002°08'0 0.0
2016-Jun-27 20:33N 46°54' W 002°08'0 0.0
2016-Jun-27 19:33N 46°54' W 002°08'0 0.0
2016-Jun-27 18:33N 46°54' W 002°08'0 0.0
2016-Jun-27 17:33N 46°54' W 002°08'0 0.0
2016-Jun-27 16:33N 46°54' W 002°08'0 0.0
2016-Jun-27 15:33N 46°54' W 002°08'0 0.0
2016-Jun-27 14:33N 46°54' W 002°08'0 0.0
2016-Jun-27 13:33N 46°54' W 002°08'0 0.0
2016-Jun-27 12:33N 46°54' W 002°08'0 0.0
2016-Jun-27 11:33N 46°54' W 002°08'1 1.5
2016-Jun-27 10:33N 46°54' W 002°11'  
2016-Jun-25 05:32N 46°53' W 002°12'2 2.4
2016-Jun-25 04:33N 46°54' W 002°08'0 0.0
2016-Jun-25 03:33N 46°54' W 002°08'0 0.0
2016-Jun-25 02:33N 46°54' W 002°08'0 0.0
2016-Jun-25 01:33N 46°54' W 002°08'0 0.0
2016-Jun-25 00:33N 46°54' W 002°08'0 0.0
2016-Jun-24 23:33N 46°54' W 002°08'0 0.0
2016-Jun-24 22:33N 46°54' W 002°08'0 0.0
2016-Jun-24 21:33N 46°54' W 002°08'0 0.0
2016-Jun-24 20:33N 46°54' W 002°08'0 0.0
2016-Jun-24 19:33N 46°54' W 002°08'0 0.0
2016-Jun-24 18:33N 46°54' W 002°08'0 0.0
2016-Jun-24 17:33N 46°54' W 002°08'4 3.7
2016-Jun-24 16:33N 46°52' W 002°13'8 1.0
2016-Jun-24 08:12N 46°45' W 002°20'914.5
2016-Jun-24 07:33N 46°53' W 002°12'8 2.7
2016-Jun-24 04:29N 46°46' W 002°19'3 1.2
2016-Jun-24 02:21N 46°44' W 002°21'0 0.0
2016-Jun-24 01:15N 46°44' W 002°21'0 0.0
2016-Jun-24 00:28N 46°44' W 002°21'4 0.6
2016-Jun-23 18:33N 46°46' W 002°18'10 9.5
2016-Jun-23 17:33N 46°54' W 002°08'0 0.0
2016-Jun-23 16:33N 46°54' W 002°08'5 4.6
2016-Jun-23 15:33N 46°51' W 002°14'9 3.9
2016-Jun-23 13:20N 46°44' W 002°21'11 1.4
2016-Jun-23 05:33N 46°52' W 002°12'3 2.9
2016-Jun-23 04:33N 46°54' W 002°08'0 0.0
2016-Jun-23 03:33N 46°54' W 002°08'0 0.0
2016-Jun-23 02:33N 46°54' W 002°08'0 0.0
2016-Jun-23 01:33N 46°54' W 002°08'0 0.0
2016-Jun-23 00:33N 46°54' W 002°08'0 0.0
2016-Jun-22 23:33N 46°54' W 002°08'0 0.0
2016-Jun-22 22:33N 46°54' W 002°08'0 0.0
2016-Jun-22 21:33N 46°54' W 002°08'0 0.0
2016-Jun-22 20:33N 46°54' W 002°08'0 0.0
2016-Jun-22 19:33N 46°54' W 002°08'0 0.0
2016-Jun-22 18:33N 46°54' W 002°08'0 0.0
2016-Jun-22 17:33N 46°54' W 002°08'0 0.0
2016-Jun-22 16:33N 46°54' W 002°08'0 0.0
2016-Jun-22 15:33N 46°54' W 002°08'1010.1
2016-Jun-22 14:33N 46°46' W 002°18'  

Dump ship's entire track history